createdAt,value
2023-02-25T00:02:26.894Z,20.20
2023-02-25T00:04:56.346Z,20.20
2023-02-25T00:07:28.969Z,20.10
2023-02-25T00:09:58.288Z,19.70
2023-02-25T00:12:26.376Z,20.20
2023-02-25T00:14:54.453Z,20.20
2023-02-25T00:17:22.556Z,20.10
2023-02-25T00:19:50.602Z,20.10
2023-02-25T00:22:20.119Z,20.10
2023-02-25T00:24:48.125Z,19.90
2023-02-25T00:27:16.166Z,20.10
2023-02-25T00:29:44.283Z,20.00
2023-02-25T00:32:12.701Z,20.10
2023-02-25T00:34:41.166Z,20.10
2023-02-25T00:37:09.115Z,20.00
2023-02-25T00:39:43.013Z,19.90
2023-02-25T00:42:11.707Z,20.00
2023-02-25T00:44:40.209Z,20.10
2023-02-25T00:47:08.241Z,20.00
2023-02-25T00:49:36.551Z,20.10
2023-02-25T00:52:04.998Z,20.30
2023-02-25T00:54:34.476Z,20.10
2023-02-25T00:57:04.116Z,20.00
2023-02-25T00:59:32.672Z,20.10
2023-02-25T01:02:00.913Z,20.10
2023-02-25T01:04:28.967Z,20.10
2023-02-25T01:06:57.361Z,20.20
2023-02-25T01:09:25.758Z,20.10
2023-02-25T01:11:53.782Z,19.50
2023-02-25T01:14:25.926Z,19.50
2023-02-25T01:16:56.127Z,19.60
2023-02-25T01:19:26.645Z,19.70
2023-02-25T01:21:57.861Z,19.60
2023-02-25T01:24:29.254Z,19.20
2023-02-25T01:27:00.189Z,19.30
2023-02-25T01:29:32.942Z,19.50
2023-02-25T01:32:04.383Z,19.20
2023-02-25T01:34:33.172Z,19.40
2023-02-25T01:37:01.788Z,19.30
2023-02-25T01:39:32.090Z,19.60
2023-02-25T01:42:04.203Z,19.20
2023-02-25T01:44:35.932Z,19.00
2023-02-25T01:47:03.953Z,19.20
2023-02-25T01:49:36.902Z,19.20
2023-02-25T01:52:09.729Z,19.50
2023-02-25T01:54:38.773Z,19.00
2023-02-25T01:57:10.139Z,19.40
2023-02-25T01:59:41.397Z,19.40
2023-02-25T02:02:10.278Z,19.50
2023-02-25T02:04:40.589Z,19.20
2023-02-25T02:07:08.692Z,19.20
2023-02-25T02:09:37.860Z,19.10
2023-02-25T02:12:08.066Z,19.20
2023-02-25T02:14:41.578Z,19.00
2023-02-25T02:17:22.448Z,19.40
2023-02-25T02:20:11.311Z,19.50
2023-02-25T02:22:51.027Z,19.00
2023-02-25T02:25:53.568Z,19.00
2023-02-25T02:29:13.084Z,18.90
2023-02-25T02:32:00.070Z,19.00
2023-02-25T02:34:42.911Z,18.70
2023-02-25T02:37:27.978Z,18.70
2023-02-25T02:40:14.444Z,18.80
2023-02-25T02:42:55.319Z,18.90
2023-02-25T02:45:30.300Z,18.80
2023-02-25T02:48:03.764Z,19.00
2023-02-25T02:50:37.556Z,18.70
2023-02-25T02:53:18.145Z,18.90
2023-02-25T02:55:49.827Z,19.00
2023-02-25T02:58:23.209Z,19.00
2023-02-25T03:00:57.870Z,18.90
2023-02-25T03:03:36.615Z,19.20
2023-02-25T03:06:09.679Z,19.00
2023-02-25T03:08:45.636Z,18.90
2023-02-25T03:11:14.867Z,18.70
2023-02-25T03:13:43.711Z,19.10
2023-02-25T03:16:19.185Z,18.80
2023-02-25T03:18:56.775Z,18.90
2023-02-25T03:21:32.869Z,18.60
2023-02-25T03:24:03.845Z,18.60
2023-02-25T03:26:33.759Z,18.70
2023-02-25T03:29:01.982Z,18.90
2023-02-25T03:31:37.116Z,19.00
2023-02-25T03:34:12.318Z,18.90
2023-02-25T03:36:43.709Z,18.90
2023-02-25T03:39:19.419Z,19.00
2023-02-25T03:41:52.332Z,18.80
2023-02-25T03:44:25.215Z,19.20
2023-02-25T03:46:56.114Z,19.00
2023-02-25T03:49:30.030Z,18.70
2023-02-25T03:52:01.062Z,18.60
2023-02-25T03:54:29.096Z,18.60
2023-02-25T03:56:57.213Z,18.80
2023-02-25T03:59:27.947Z,18.70
2023-02-25T04:01:58.054Z,18.70
2023-02-25T04:04:27.578Z,18.90
2023-02-25T04:06:55.635Z,18.90
2023-02-25T04:09:23.543Z,18.70
2023-02-25T04:11:56.901Z,18.80
2023-02-25T04:14:24.918Z,19.00
2023-02-25T04:16:52.946Z,18.70
2023-02-25T04:19:20.910Z,19.10
2023-02-25T04:21:50.154Z,18.70
2023-02-25T04:24:18.183Z,19.10
2023-02-25T04:26:46.165Z,18.80
2023-02-25T04:29:14.168Z,18.70
2023-02-25T04:31:42.475Z,19.10
2023-02-25T04:34:10.604Z,18.70
2023-02-25T04:36:38.690Z,18.70
2023-02-25T04:39:07.967Z,18.80
2023-02-25T04:41:37.174Z,19.00
2023-02-25T04:44:07.180Z,18.90
2023-02-25T04:46:37.607Z,18.60
2023-02-25T04:49:06.487Z,18.90
2023-02-25T04:51:34.817Z,18.60
2023-02-25T04:54:03.162Z,18.60
2023-02-25T04:56:32.567Z,18.90
2023-02-25T04:59:00.526Z,18.70
2023-02-25T05:01:28.565Z,18.80
2023-02-25T05:03:56.995Z,18.90
2023-02-25T05:06:25.532Z,18.80
2023-02-25T05:08:54.033Z,18.80
2023-02-25T05:11:22.584Z,18.70
2023-02-25T05:13:52.311Z,18.60
2023-02-25T05:16:20.719Z,18.80
2023-02-25T05:18:49.394Z,18.60
2023-02-25T05:21:20.082Z,18.60
2023-02-25T05:23:50.206Z,18.60
2023-02-25T05:26:22.800Z,18.50
2023-02-25T05:28:52.993Z,19.00
2023-02-25T05:31:21.469Z,18.70
2023-02-25T05:33:49.516Z,18.60
2023-02-25T05:36:18.217Z,18.90
2023-02-25T05:38:47.463Z,18.60
2023-02-25T05:41:16.515Z,18.60
2023-02-25T05:43:45.881Z,18.80
2023-02-25T05:46:15.879Z,18.50
2023-02-25T05:48:46.572Z,18.90
2023-02-25T05:51:18.114Z,19.00
2023-02-25T05:53:47.882Z,18.60
2023-02-25T05:56:19.412Z,18.30
2023-02-25T05:58:48.419Z,18.50
2023-02-25T06:01:22.605Z,18.70
2023-02-25T06:03:52.624Z,18.60
2023-02-25T06:06:24.290Z,19.00
2023-02-25T06:08:52.894Z,18.80
2023-02-25T06:11:24.378Z,18.70
2023-02-25T06:13:54.906Z,18.60
2023-02-25T06:16:26.527Z,18.60
2023-02-25T06:18:54.867Z,18.70
2023-02-25T06:21:22.878Z,18.60
2023-02-25T06:23:51.441Z,18.90
2023-02-25T06:26:20.022Z,18.60
2023-02-25T06:28:48.466Z,18.70
2023-02-25T06:31:19.026Z,18.50
2023-02-25T06:33:48.624Z,18.50
2023-02-25T06:36:16.640Z,18.60
2023-02-25T06:38:46.029Z,18.70
2023-02-25T06:41:16.471Z,18.60
2023-02-25T06:43:45.068Z,18.60
2023-02-25T06:46:15.794Z,18.70
2023-02-25T06:48:43.782Z,18.60
2023-02-25T06:51:14.087Z,18.40
2023-02-25T06:53:44.320Z,19.00
2023-02-25T06:56:14.785Z,18.50
2023-02-25T06:58:43.541Z,18.80
2023-02-25T07:01:14.673Z,18.90
2023-02-25T07:03:44.362Z,18.40
2023-02-25T07:06:15.629Z,18.50
2023-02-25T07:08:43.817Z,18.60
2023-02-25T07:11:29.117Z,18.60
2023-02-25T07:13:57.970Z,18.70
2023-02-25T07:16:26.473Z,18.60
2023-02-25T07:18:54.618Z,18.50
2023-02-25T07:21:24.294Z,18.60
2023-02-25T07:23:52.344Z,18.60
2023-02-25T07:26:20.316Z,18.40
2023-02-25T07:28:49.030Z,18.70
2023-02-25T07:31:21.869Z,18.90
2023-02-25T07:33:50.230Z,18.70
2023-02-25T07:36:18.923Z,18.60
2023-02-25T07:38:49.263Z,18.70
2023-02-25T07:41:19.940Z,18.60
2023-02-25T07:43:47.884Z,18.70
2023-02-25T07:46:15.924Z,18.60
2023-02-25T07:48:44.036Z,18.50
2023-02-25T07:51:18.461Z,18.90
2023-02-25T07:53:49.318Z,19.00
2023-02-25T07:56:18.478Z,18.70
2023-02-25T07:58:46.972Z,18.60
2023-02-25T08:01:23.508Z,18.90
2023-02-25T08:03:53.667Z,18.50
2023-02-25T08:06:22.040Z,18.60
2023-02-25T08:08:52.010Z,18.90
2023-02-25T08:11:22.898Z,18.80
2023-02-25T08:13:51.264Z,18.70
2023-02-25T08:16:21.771Z,18.60
2023-02-25T08:18:50.065Z,18.60
2023-02-25T08:21:21.748Z,18.60
2023-02-25T08:23:51.904Z,18.60
2023-02-25T08:26:22.368Z,18.60
2023-02-25T08:28:51.529Z,18.90
2023-02-25T08:31:21.010Z,18.80
2023-02-25T08:36:31.219Z,18.70
2023-02-25T08:39:02.106Z,19.00
2023-02-25T08:41:31.645Z,19.00
2023-02-25T08:44:01.889Z,18.70
2023-02-25T08:46:32.962Z,18.70
2023-02-25T08:49:01.242Z,19.10
2023-02-25T08:51:33.972Z,18.80
2023-02-25T08:54:09.406Z,18.70
2023-02-25T08:56:40.267Z,18.70
2023-02-25T08:59:08.194Z,18.70
2023-02-25T09:01:45.588Z,18.70
2023-02-25T09:04:15.149Z,19.00
2023-02-25T09:06:43.590Z,19.00
2023-02-25T09:09:13.269Z,19.10
2023-02-25T09:11:43.057Z,18.80
2023-02-25T09:14:11.503Z,19.00
2023-02-25T09:16:39.771Z,19.00
2023-02-25T09:19:08.111Z,18.90
2023-02-25T09:21:37.046Z,18.70
2023-02-25T09:24:05.645Z,18.80
2023-02-25T09:26:35.235Z,18.70
2023-02-25T09:29:05.032Z,18.80
2023-02-25T09:31:33.682Z,18.70
2023-02-25T09:34:04.437Z,18.80
2023-02-25T09:36:32.767Z,19.40
2023-02-25T09:39:00.783Z,19.40
2023-02-25T09:41:36.498Z,19.10
2023-02-25T09:44:11.817Z,19.00
2023-02-25T09:46:46.885Z,18.80
2023-02-25T09:49:26.838Z,19.10
2023-02-25T09:52:02.464Z,18.80
2023-02-25T09:54:36.759Z,19.20
2023-02-25T09:57:08.509Z,19.50
2023-02-25T09:59:36.722Z,19.70
2023-02-25T10:02:27.530Z,19.50
2023-02-25T10:05:14.766Z,18.90
2023-02-25T10:07:57.472Z,18.50
2023-02-25T10:10:35.963Z,17.90
2023-02-25T10:13:16.301Z,17.70
2023-02-25T10:15:58.757Z,17.50
2023-02-25T10:18:42.595Z,18.00
2023-02-25T10:21:25.146Z,18.50
2023-02-25T10:24:13.429Z,19.00
2023-02-25T10:26:48.758Z,19.00
2023-02-25T10:29:29.221Z,19.50
2023-02-25T10:32:01.558Z,19.60
2023-02-25T10:34:30.846Z,19.60
2023-02-25T10:37:01.044Z,19.70
2023-02-25T10:39:31.171Z,19.70
2023-02-25T10:41:59.499Z,19.50
2023-02-25T10:44:28.858Z,19.50
2023-02-25T10:47:02.875Z,19.60
2023-02-25T10:49:38.117Z,19.60
2023-02-25T10:52:11.334Z,19.40
2023-02-25T10:54:49.800Z,19.50
2023-02-25T10:57:25.797Z,19.70
2023-02-25T11:00:06.370Z,19.50
2023-02-25T11:02:42.423Z,19.50
2023-02-25T11:05:32.621Z,19.50
2023-02-25T11:08:01.935Z,19.20
2023-02-25T11:10:29.899Z,19.50
2023-02-25T11:12:59.272Z,19.50
2023-02-25T11:15:45.151Z,19.30
2023-02-25T11:18:23.325Z,19.30
2023-02-25T11:20:55.518Z,18.80
2023-02-25T11:23:28.780Z,18.90
2023-02-25T11:25:57.448Z,19.40
2023-02-25T11:28:31.592Z,19.30
2023-02-25T11:31:11.923Z,19.20
2023-02-25T11:33:44.791Z,19.20
2023-02-25T11:36:13.927Z,19.40
2023-02-25T11:38:43.458Z,19.40
2023-02-25T11:41:20.359Z,19.60
2023-02-25T11:43:49.618Z,19.10
2023-02-25T11:46:24.411Z,19.70
2023-02-25T11:48:56.371Z,20.00
2023-02-25T11:51:33.284Z,19.90
2023-02-25T11:54:26.723Z,20.30
2023-02-25T11:57:02.460Z,20.30
2023-02-25T11:59:38.090Z,20.50
2023-02-25T12:02:31.212Z,20.80
2023-02-25T12:05:43.301Z,21.20
2023-02-25T12:08:33.026Z,21.20
2023-02-25T12:11:40.228Z,20.90
2023-02-25T12:15:04.493Z,20.40
2023-02-25T12:18:27.443Z,19.80
2023-02-25T12:21:23.659Z,19.80
2023-02-25T12:24:43.404Z,19.60
2023-02-25T12:27:44.460Z,19.80
2023-02-25T12:30:56.432Z,19.60
2023-02-25T12:34:05.228Z,19.60
2023-02-25T12:36:54.876Z,19.60
2023-02-25T12:39:48.051Z,19.70
2023-02-25T12:42:43.217Z,19.70
2023-02-25T12:45:33.286Z,19.50
2023-02-25T12:48:37.790Z,19.70
2023-02-25T12:51:47.254Z,19.20
2023-02-25T12:54:40.253Z,19.70
2023-02-25T12:57:28.225Z,19.80
2023-02-25T13:00:18.610Z,20.40
2023-02-25T13:03:15.538Z,20.40
2023-02-25T13:06:12.071Z,20.30
2023-02-25T13:09:15.003Z,20.50
2023-02-25T13:12:12.254Z,20.60
2023-02-25T13:14:57.995Z,20.50
2023-02-25T13:17:46.685Z,20.40
2023-02-25T13:20:34.011Z,20.60
2023-02-25T13:23:37.314Z,20.50
2023-02-25T13:26:24.588Z,20.20
2023-02-25T13:29:22.477Z,20.40
2023-02-25T13:32:10.171Z,20.50
2023-02-25T13:34:47.110Z,20.30
2023-02-25T13:37:41.661Z,20.60
2023-02-25T13:40:33.273Z,20.50
2023-02-25T13:43:32.426Z,20.60
2023-02-25T13:46:39.889Z,21.10
2023-02-25T13:49:36.822Z,21.50
2023-02-25T13:52:31.801Z,21.80
2023-02-25T13:55:39.027Z,21.70
2023-02-25T13:58:33.300Z,21.80
2023-02-25T14:01:47.774Z,22.20
2023-02-25T14:04:48.935Z,22.20
2023-02-25T14:07:46.913Z,24.00
2023-02-25T14:10:32.698Z,22.00
2023-02-25T14:13:24.444Z,20.50
2023-02-25T14:16:02.328Z,19.50
2023-02-25T14:19:03.254Z,19.10
2023-02-25T14:22:01.984Z,22.70
2023-02-25T14:24:39.527Z,24.50
2023-02-25T14:27:21.937Z,23.80
2023-02-25T14:30:11.002Z,24.40
2023-02-25T14:32:56.444Z,22.50
2023-02-25T14:35:56.871Z,21.30
2023-02-25T14:38:40.632Z,20.60
2023-02-25T14:41:29.089Z,20.20
2023-02-25T14:44:02.686Z,20.10
2023-02-25T14:46:36.025Z,19.80
2023-02-25T14:49:12.122Z,20.70
2023-02-25T14:52:30.927Z,21.10
2023-02-25T14:55:45.120Z,21.10
2023-02-25T14:58:41.238Z,21.70
2023-02-25T15:01:45.530Z,21.90
2023-02-25T15:04:59.312Z,22.10
2023-02-25T15:08:02.381Z,22.00
2023-02-25T15:10:52.301Z,21.90
2023-02-25T15:13:56.703Z,20.80
2023-02-25T15:16:57.184Z,19.00
2023-02-25T15:19:59.566Z,18.80
2023-02-25T15:22:29.317Z,18.20
2023-02-25T15:25:37.197Z,18.10
2023-02-25T15:28:35.840Z,18.00
2023-02-25T15:31:28.350Z,17.80
2023-02-25T15:34:54.187Z,17.20
2023-02-25T15:37:35.144Z,17.60
2023-02-25T15:40:47.439Z,19.20
2023-02-25T15:43:43.386Z,19.70
2023-02-25T15:46:42.196Z,20.30
2023-02-25T15:49:27.892Z,20.20
2023-02-25T15:51:59.026Z,20.90
2023-02-25T15:54:48.488Z,20.40
2023-02-25T15:57:41.731Z,20.50
2023-02-25T16:00:53.389Z,20.60
2023-02-25T16:03:43.334Z,20.30
2023-02-25T16:06:18.917Z,20.10
2023-02-25T16:08:58.847Z,20.30
2023-02-25T16:11:35.200Z,20.20
2023-02-25T16:14:08.261Z,20.10
2023-02-25T16:16:45.552Z,20.20
2023-02-25T16:19:18.707Z,20.20
2023-02-25T16:21:52.913Z,19.90
2023-02-25T16:24:21.325Z,20.20
2023-02-25T16:26:59.396Z,20.40
2023-02-25T16:29:44.929Z,20.20
2023-02-25T16:32:29.357Z,20.10
2023-02-25T16:35:07.133Z,20.00
2023-02-25T16:37:46.124Z,19.80
2023-02-25T16:40:20.349Z,19.60
2023-02-25T16:42:48.450Z,19.70
2023-02-25T16:45:27.263Z,19.60
2023-02-25T16:48:01.069Z,19.80
2023-02-25T16:50:31.592Z,19.80
2023-02-25T16:53:00.961Z,19.40
2023-02-25T16:55:37.530Z,19.50
2023-02-25T16:58:17.006Z,19.60
2023-02-25T17:00:52.321Z,19.70
2023-02-25T17:03:24.029Z,19.60
2023-02-25T17:06:07.868Z,19.40
2023-02-25T17:08:36.570Z,19.40
2023-02-25T17:11:06.718Z,19.50
2023-02-25T17:13:37.018Z,19.60
2023-02-25T17:16:07.433Z,19.30
2023-02-25T17:18:46.101Z,19.40
2023-02-25T17:21:24.049Z,19.40
2023-02-25T17:23:52.543Z,18.90
2023-02-25T17:26:21.900Z,19.10
2023-02-25T17:28:54.141Z,19.50
2023-02-25T17:31:26.730Z,19.30
2023-02-25T17:34:00.716Z,19.00
2023-02-25T17:36:32.280Z,19.30
2023-02-25T17:39:04.393Z,19.10
2023-02-25T17:41:32.499Z,19.20
2023-02-25T17:44:00.706Z,19.00
2023-02-25T17:46:36.154Z,19.20
2023-02-25T17:49:19.791Z,19.20
2023-02-25T17:51:52.888Z,19.00
2023-02-25T17:54:24.178Z,18.80
2023-02-25T17:56:57.926Z,18.90
2023-02-25T17:59:38.094Z,18.80
2023-02-25T18:02:32.495Z,19.10
2023-02-25T18:05:23.465Z,19.20
2023-02-25T18:08:22.261Z,19.50
2023-02-25T18:10:55.979Z,19.20
2023-02-25T18:13:34.948Z,19.30
2023-02-25T18:16:37.425Z,19.50
2023-02-25T18:19:28.957Z,19.00
2023-02-25T18:21:58.612Z,19.20
2023-02-25T18:24:30.926Z,19.40
2023-02-25T18:27:06.155Z,19.50
2023-02-25T18:29:34.565Z,18.80
2023-02-25T18:32:02.839Z,18.90
2023-02-25T18:34:31.648Z,19.10
2023-02-25T18:37:00.977Z,18.90
2023-02-25T18:39:29.021Z,19.20
2023-02-25T18:41:56.984Z,19.10
2023-02-25T18:44:24.967Z,19.20
2023-02-25T18:46:52.987Z,18.80
2023-02-25T18:49:20.950Z,19.30
2023-02-25T18:51:50.585Z,19.00
2023-02-25T18:54:19.846Z,19.10
2023-02-25T18:56:48.058Z,19.10
2023-02-25T18:59:16.069Z,19.00
2023-02-25T19:01:45.241Z,19.00
2023-02-25T19:04:17.326Z,18.80
2023-02-25T19:06:46.654Z,18.60
2023-02-25T19:09:16.038Z,18.60
2023-02-25T19:11:45.516Z,19.00
2023-02-25T19:14:19.638Z,18.90
2023-02-25T19:16:47.673Z,18.80
2023-02-25T19:19:15.642Z,19.10
2023-02-25T19:21:43.665Z,19.00
2023-02-25T19:24:13.187Z,18.70
2023-02-25T19:26:41.622Z,19.10
2023-02-25T19:29:10.967Z,19.00
2023-02-25T19:31:39.376Z,18.90
2023-02-25T19:34:07.343Z,19.10
2023-02-25T19:36:35.333Z,18.60
2023-02-25T19:39:05.406Z,18.70
2023-02-25T19:41:33.564Z,18.90
2023-02-25T19:44:01.755Z,18.60
2023-02-25T19:46:31.172Z,18.80
2023-02-25T19:48:59.208Z,18.60
2023-02-25T19:51:27.352Z,19.10
2023-02-25T19:53:55.557Z,18.90
2023-02-25T19:56:24.342Z,18.60
2023-02-25T19:58:57.437Z,19.10
2023-02-25T20:01:26.135Z,18.60
2023-02-25T20:03:55.590Z,18.60
2023-02-25T20:06:26.067Z,18.80
2023-02-25T20:08:55.721Z,19.10
2023-02-25T20:11:24.280Z,18.90
2023-02-25T20:13:52.409Z,18.70
2023-02-25T20:16:21.252Z,18.60
2023-02-25T20:18:50.202Z,18.70
2023-02-25T20:21:19.865Z,18.80
2023-02-25T20:23:48.107Z,18.90
2023-02-25T20:26:18.422Z,18.40
2023-02-25T20:28:47.515Z,18.90
2023-02-25T20:31:18.851Z,19.00
2023-02-25T20:33:49.308Z,18.60
2023-02-25T20:36:23.145Z,18.60
2023-02-25T20:39:12.703Z,18.70
2023-02-25T20:41:42.046Z,18.50
2023-02-25T20:44:11.494Z,18.80
2023-02-25T20:46:41.218Z,18.90
2023-02-25T20:49:15.844Z,18.60
2023-02-25T20:51:47.506Z,18.60
2023-02-25T20:54:17.842Z,19.00
2023-02-25T20:56:48.343Z,18.50
2023-02-25T20:59:18.613Z,18.90
2023-02-25T21:01:46.708Z,18.60
2023-02-25T21:04:15.181Z,18.60
2023-02-25T21:06:44.604Z,18.30
2023-02-25T21:09:12.697Z,18.90
2023-02-25T21:11:40.630Z,18.40
2023-02-25T21:14:10.315Z,18.60
2023-02-25T21:16:39.004Z,18.40
2023-02-25T21:19:08.416Z,18.60
2023-02-25T21:21:37.827Z,18.20
2023-02-25T21:24:09.852Z,18.60
2023-02-25T21:26:39.213Z,18.80
2023-02-25T21:29:07.701Z,18.40
2023-02-25T21:31:37.494Z,18.60
2023-02-25T21:34:06.720Z,18.70
2023-02-25T21:36:34.717Z,18.70
2023-02-25T21:39:02.842Z,18.50
2023-02-25T21:41:32.204Z,18.60
2023-02-25T21:44:00.259Z,18.50
2023-02-25T21:46:28.796Z,18.90
2023-02-25T21:48:57.474Z,18.50
2023-02-25T21:51:28.039Z,18.90
2023-02-25T21:53:57.599Z,18.90
2023-02-25T21:56:27.911Z,18.60
2023-02-25T21:58:58.926Z,18.50
2023-02-25T22:01:32.586Z,18.70
2023-02-25T22:04:00.821Z,18.80
2023-02-25T22:06:29.111Z,18.50
2023-02-25T22:08:58.421Z,18.70
2023-02-25T22:11:29.509Z,18.60
2023-02-25T22:14:00.123Z,18.80
2023-02-25T22:16:29.680Z,18.70
2023-02-25T22:18:57.913Z,18.60
2023-02-25T22:21:28.392Z,18.50
2023-02-25T22:23:59.606Z,18.80
2023-02-25T22:26:30.025Z,18.60
2023-02-25T22:29:02.473Z,18.50
2023-02-25T22:31:32.511Z,18.90
2023-02-25T22:34:01.286Z,18.60
2023-02-25T22:36:29.419Z,18.80
2023-02-25T22:38:57.501Z,18.50
2023-02-25T22:41:28.563Z,18.60
2023-02-25T22:43:59.698Z,18.90
2023-02-25T22:46:30.328Z,18.50
2023-02-25T22:48:58.951Z,18.90
2023-02-25T22:51:31.872Z,18.30
2023-02-25T22:54:00.142Z,18.60
2023-02-25T22:56:29.281Z,18.40
2023-02-25T22:58:59.052Z,18.50
2023-02-25T23:01:28.405Z,18.90
2023-02-25T23:03:57.456Z,18.20
2023-02-25T23:06:42.359Z,18.40
2023-02-25T23:09:12.328Z,18.60
2023-02-25T23:11:43.133Z,18.20
2023-02-25T23:14:12.894Z,18.80
2023-02-25T23:16:43.147Z,18.50
2023-02-25T23:19:15.607Z,18.60
2023-02-25T23:21:43.886Z,18.50
2023-02-25T23:24:16.052Z,18.60
2023-02-25T23:26:45.492Z,18.70
2023-02-25T23:29:15.517Z,18.50
2023-02-25T23:31:46.856Z,18.50
2023-02-25T23:34:22.746Z,18.80
2023-02-25T23:36:51.199Z,18.50
2023-02-25T23:39:19.279Z,18.30
2023-02-25T23:44:21.558Z,18.30
2023-02-25T23:46:49.748Z,18.40
2023-02-25T23:49:18.592Z,18.50
2023-02-25T23:51:48.671Z,18.60
2023-02-25T23:54:22.140Z,18.30
2023-02-25T23:56:51.022Z,18.50
2023-02-25T23:59:22.467Z,18.30
